sensor_id;sensor_type;location;lat;lon;timestamp;temperature;humidity
3262;DHT22;1643;47.746;9.000;2024-03-06T00:01:31;8.30;99.90
3262;DHT22;1643;47.746;9.000;2024-03-06T00:03:57;8.40;99.90
3262;DHT22;1643;47.746;9.000;2024-03-06T00:06:23;8.40;99.90
3262;DHT22;1643;47.746;9.000;2024-03-06T00:08:50;8.40;99.90
3262;DHT22;1643;47.746;9.000;2024-03-06T00:11:15;8.40;99.90
3262;DHT22;1643;47.746;9.000;2024-03-06T00:13:41;8.40;99.90
3262;DHT22;1643;47.746;9.000;2024-03-06T00:16:06;8.40;99.90
3262;DHT22;1643;47.746;9.000;2024-03-06T00:18:32;8.30;99.90
3262;DHT22;1643;47.746;9.000;2024-03-06T00:20:58;8.20;99.90
3262;DHT22;1643;47.746;9.000;2024-03-06T00:23:24;8.10;99.90
3262;DHT22;1643;47.746;9.000;2024-03-06T00:25:50;8.20;99.90
3262;DHT22;1643;47.746;9.000;2024-03-06T00:28:15;8.10;99.90
3262;DHT22;1643;47.746;9.000;2024-03-06T00:30:41;8.10;99.90
3262;DHT22;1643;47.746;9.000;2024-03-06T00:33:07;8.10;99.90
3262;DHT22;1643;47.746;9.000;2024-03-06T00:35:33;8.10;99.90
3262;DHT22;1643;47.746;9.000;2024-03-06T00:37:59;8.10;99.90
3262;DHT22;1643;47.746;9.000;2024-03-06T00:40:28;8.10;99.90
3262;DHT22;1643;47.746;9.000;2024-03-06T00:56:06;8.10;99.90
3262;DHT22;1643;47.746;9.000;2024-03-06T00:58:32;8.00;99.90
3262;DHT22;1643;47.746;9.000;2024-03-06T01:00:57;8.00;99.90
3262;DHT22;1643;47.746;9.000;2024-03-06T01:03:24;8.00;99.90
3262;DHT22;1643;47.746;9.000;2024-03-06T01:05:50;8.00;99.90
3262;DHT22;1643;47.746;9.000;2024-03-06T01:08:17;7.90;99.90
3262;DHT22;1643;47.746;9.000;2024-03-06T01:10:43;7.90;99.90
3262;DHT22;1643;47.746;9.000;2024-03-06T01:13:09;8.00;99.90
3262;DHT22;1643;47.746;9.000;2024-03-06T01:15:37;8.00;99.90
3262;DHT22;1643;47.746;9.000;2024-03-06T01:18:02;8.00;99.90
3262;DHT22;1643;47.746;9.000;2024-03-06T01:20:29;8.00;99.90
3262;DHT22;1643;47.746;9.000;2024-03-06T01:32:46;7.90;99.90
3262;DHT22;1643;47.746;9.000;2024-03-06T01:35:12;7.90;99.90
3262;DHT22;1643;47.746;9.000;2024-03-06T01:37:38;7.90;99.90
3262;DHT22;1643;47.746;9.000;2024-03-06T01:40:05;7.80;99.90
3262;DHT22;1643;47.746;9.000;2024-03-06T01:42:31;7.80;99.90
3262;DHT22;1643;47.746;9.000;2024-03-06T01:44:57;7.80;99.90
3262;DHT22;1643;47.746;9.000;2024-03-06T01:47:23;7.70;99.90
3262;DHT22;1643;47.746;9.000;2024-03-06T01:49:49;7.80;99.90
3262;DHT22;1643;47.746;9.000;2024-03-06T01:52:15;7.80;99.90
3262;DHT22;1643;47.746;9.000;2024-03-06T01:54:43;7.80;99.90
3262;DHT22;1643;47.746;9.000;2024-03-06T01:57:10;7.70;99.90
3262;DHT22;1643;47.746;9.000;2024-03-06T01:59:39;7.70;99.90
3262;DHT22;1643;47.746;9.000;2024-03-06T02:02:05;7.60;99.90
3262;DHT22;1643;47.746;9.000;2024-03-06T02:04:33;7.70;99.90
3262;DHT22;1643;47.746;9.000;2024-03-06T02:06:59;7.60;99.90
3262;DHT22;1643;47.746;9.000;2024-03-06T02:09:24;7.60;99.90
3262;DHT22;1643;47.746;9.000;2024-03-06T02:11:50;7.60;99.90
3262;DHT22;1643;47.746;9.000;2024-03-06T02:14:16;7.60;99.90
3262;DHT22;1643;47.746;9.000;2024-03-06T02:16:41;7.50;99.90
3262;DHT22;1643;47.746;9.000;2024-03-06T02:19:08;7.60;99.90
3262;DHT22;1643;47.746;9.000;2024-03-06T02:21:34;7.50;99.90
3262;DHT22;1643;47.746;9.000;2024-03-06T02:24:00;7.60;99.90
3262;DHT22;1643;47.746;9.000;2024-03-06T02:26:25;7.50;99.90
3262;DHT22;1643;47.746;9.000;2024-03-06T02:28:52;7.50;99.90
3262;DHT22;1643;47.746;9.000;2024-03-06T02:31:19;7.50;99.90
3262;DHT22;1643;47.746;9.000;2024-03-06T02:33:46;7.50;99.90
3262;DHT22;1643;47.746;9.000;2024-03-06T02:36:18;7.50;99.90
3262;DHT22;1643;47.746;9.000;2024-03-06T02:38:45;7.50;99.90
3262;DHT22;1643;47.746;9.000;2024-03-06T02:41:11;7.60;99.90
3262;DHT22;1643;47.746;9.000;2024-03-06T02:43:37;7.60;99.90
3262;DHT22;1643;47.746;9.000;2024-03-06T02:46:03;7.60;99.90
3262;DHT22;1643;47.746;9.000;2024-03-06T02:48:30;7.50;99.90
3262;DHT22;1643;47.746;9.000;2024-03-06T02:50:56;7.50;99.90
3262;DHT22;1643;47.746;9.000;2024-03-06T02:53:21;7.50;99.90
3262;DHT22;1643;47.746;9.000;2024-03-06T02:55:47;7.40;99.90
3262;DHT22;1643;47.746;9.000;2024-03-06T02:58:13;7.30;99.90
3262;DHT22;1643;47.746;9.000;2024-03-06T03:00:45;7.30;99.90
3262;DHT22;1643;47.746;9.000;2024-03-06T03:03:11;7.30;99.90
3262;DHT22;1643;47.746;9.000;2024-03-06T03:05:38;7.20;99.90
3262;DHT22;1643;47.746;9.000;2024-03-06T03:08:03;7.20;99.90
3262;DHT22;1643;47.746;9.000;2024-03-06T03:10:30;7.30;99.90
3262;DHT22;1643;47.746;9.000;2024-03-06T03:12:56;7.30;99.90
3262;DHT22;1643;47.746;9.000;2024-03-06T03:15:22;7.30;99.90
3262;DHT22;1643;47.746;9.000;2024-03-06T03:17:47;7.30;99.90
3262;DHT22;1643;47.746;9.000;2024-03-06T03:20:13;7.30;99.90
3262;DHT22;1643;47.746;9.000;2024-03-06T03:22:42;7.30;99.90
3262;DHT22;1643;47.746;9.000;2024-03-06T03:25:11;7.30;99.90
3262;DHT22;1643;47.746;9.000;2024-03-06T03:27:38;7.30;99.90
3262;DHT22;1643;47.746;9.000;2024-03-06T03:30:08;7.20;99.90
3262;DHT22;1643;47.746;9.000;2024-03-06T03:32:37;7.20;99.90
3262;DHT22;1643;47.746;9.000;2024-03-06T03:35:04;7.20;99.90
3262;DHT22;1643;47.746;9.000;2024-03-06T03:37:31;7.30;99.90
3262;DHT22;1643;47.746;9.000;2024-03-06T03:39:56;7.30;99.90
3262;DHT22;1643;47.746;9.000;2024-03-06T03:42:22;7.30;99.90
3262;DHT22;1643;47.746;9.000;2024-03-06T03:44:47;7.20;99.90
3262;DHT22;1643;47.746;9.000;2024-03-06T03:47:13;7.30;99.90
3262;DHT22;1643;47.746;9.000;2024-03-06T03:49:39;7.30;99.90
3262;DHT22;1643;47.746;9.000;2024-03-06T03:52:05;7.30;99.90
3262;DHT22;1643;47.746;9.000;2024-03-06T03:54:30;7.30;99.90
3262;DHT22;1643;47.746;9.000;2024-03-06T03:56:56;7.30;99.90
3262;DHT22;1643;47.746;9.000;2024-03-06T03:59:22;7.30;99.90
3262;DHT22;1643;47.746;9.000;2024-03-06T04:01:48;7.30;99.90
3262;DHT22;1643;47.746;9.000;2024-03-06T04:04:14;7.30;99.90
3262;DHT22;1643;47.746;9.000;2024-03-06T04:06:39;7.20;99.90
3262;DHT22;1643;47.746;9.000;2024-03-06T04:09:05;7.20;99.90
3262;DHT22;1643;47.746;9.000;2024-03-06T04:11:31;7.20;99.90
3262;DHT22;1643;47.746;9.000;2024-03-06T04:13:59;7.10;99.90
3262;DHT22;1643;47.746;9.000;2024-03-06T04:16:25;7.00;99.90
3262;DHT22;1643;47.746;9.000;2024-03-06T04:18:51;7.10;99.90
3262;DHT22;1643;47.746;9.000;2024-03-06T04:21:17;7.10;99.90
3262;DHT22;1643;47.746;9.000;2024-03-06T04:23:43;7.00;99.90
3262;DHT22;1643;47.746;9.000;2024-03-06T04:26:09;7.00;99.90
3262;DHT22;1643;47.746;9.000;2024-03-06T04:28:35;7.10;99.90
3262;DHT22;1643;47.746;9.000;2024-03-06T04:31:00;7.10;99.90
3262;DHT22;1643;47.746;9.000;2024-03-06T04:33:26;7.10;99.90
3262;DHT22;1643;47.746;9.000;2024-03-06T04:35:51;7.10;99.90
3262;DHT22;1643;47.746;9.000;2024-03-06T04:38:17;7.10;99.90
3262;DHT22;1643;47.746;9.000;2024-03-06T04:40:43;7.20;99.90
3262;DHT22;1643;47.746;9.000;2024-03-06T04:43:10;7.20;99.90
3262;DHT22;1643;47.746;9.000;2024-03-06T04:45:36;7.20;99.90
3262;DHT22;1643;47.746;9.000;2024-03-06T04:48:01;7.20;99.90
3262;DHT22;1643;47.746;9.000;2024-03-06T04:50:27;7.20;99.90
3262;DHT22;1643;47.746;9.000;2024-03-06T04:52:53;7.30;99.90
3262;DHT22;1643;47.746;9.000;2024-03-06T04:55:18;7.30;99.90
3262;DHT22;1643;47.746;9.000;2024-03-06T04:57:48;7.30;99.90
3262;DHT22;1643;47.746;9.000;2024-03-06T05:00:14;7.30;99.90
3262;DHT22;1643;47.746;9.000;2024-03-06T05:02:40;7.40;99.90
3262;DHT22;1643;47.746;9.000;2024-03-06T05:05:07;7.30;99.90
3262;DHT22;1643;47.746;9.000;2024-03-06T05:07:34;7.30;99.90
3262;DHT22;1643;47.746;9.000;2024-03-06T05:10:00;7.30;99.90
3262;DHT22;1643;47.746;9.000;2024-03-06T05:12:26;7.30;99.90
3262;DHT22;1643;47.746;9.000;2024-03-06T05:14:52;7.30;99.90
3262;DHT22;1643;47.746;9.000;2024-03-06T05:17:19;7.30;99.90
3262;DHT22;1643;47.746;9.000;2024-03-06T05:19:46;7.30;99.90
3262;DHT22;1643;47.746;9.000;2024-03-06T05:22:13;7.30;99.90
3262;DHT22;1643;47.746;9.000;2024-03-06T05:24:39;7.40;99.90
3262;DHT22;1643;47.746;9.000;2024-03-06T05:27:05;7.40;99.90
3262;DHT22;1643;47.746;9.000;2024-03-06T05:29:31;7.30;99.90
3262;DHT22;1643;47.746;9.000;2024-03-06T05:31:57;7.20;99.90
3262;DHT22;1643;47.746;9.000;2024-03-06T05:34:22;7.30;99.90
3262;DHT22;1643;47.746;9.000;2024-03-06T05:36:48;7.30;99.90
3262;DHT22;1643;47.746;9.000;2024-03-06T05:39:14;7.30;99.90
3262;DHT22;1643;47.746;9.000;2024-03-06T05:41:40;7.20;99.90
3262;DHT22;1643;47.746;9.000;2024-03-06T05:44:07;7.20;99.90
3262;DHT22;1643;47.746;9.000;2024-03-06T05:46:33;7.00;99.90
3262;DHT22;1643;47.746;9.000;2024-03-06T05:48:58;7.00;99.90
3262;DHT22;1643;47.746;9.000;2024-03-06T05:51:24;6.90;99.90
3262;DHT22;1643;47.746;9.000;2024-03-06T05:53:50;6.90;99.90
3262;DHT22;1643;47.746;9.000;2024-03-06T05:56:18;6.80;99.90
3262;DHT22;1643;47.746;9.000;2024-03-06T05:58:44;6.80;99.90
3262;DHT22;1643;47.746;9.000;2024-03-06T06:01:12;6.80;99.90
3262;DHT22;1643;47.746;9.000;2024-03-06T06:03:39;6.80;99.90
3262;DHT22;1643;47.746;9.000;2024-03-06T06:06:05;6.80;99.90
3262;DHT22;1643;47.746;9.000;2024-03-06T06:08:31;6.80;99.90
3262;DHT22;1643;47.746;9.000;2024-03-06T06:10:56;6.90;99.90
3262;DHT22;1643;47.746;9.000;2024-03-06T06:13:22;6.90;99.90
3262;DHT22;1643;47.746;9.000;2024-03-06T06:15:47;6.80;99.90
3262;DHT22;1643;47.746;9.000;2024-03-06T06:18:13;6.80;99.90
3262;DHT22;1643;47.746;9.000;2024-03-06T06:20:41;6.80;99.90
3262;DHT22;1643;47.746;9.000;2024-03-06T06:23:07;6.80;99.90
3262;DHT22;1643;47.746;9.000;2024-03-06T06:25:33;6.70;99.90
3262;DHT22;1643;47.746;9.000;2024-03-06T06:27:59;6.70;99.90
3262;DHT22;1643;47.746;9.000;2024-03-06T06:30:24;6.70;99.90
3262;DHT22;1643;47.746;9.000;2024-03-06T06:32:50;6.80;99.90
3262;DHT22;1643;47.746;9.000;2024-03-06T06:35:15;6.90;99.90
3262;DHT22;1643;47.746;9.000;2024-03-06T06:37:41;6.90;99.90
3262;DHT22;1643;47.746;9.000;2024-03-06T06:40:08;6.90;99.90
3262;DHT22;1643;47.746;9.000;2024-03-06T06:42:34;6.80;99.90
3262;DHT22;1643;47.746;9.000;2024-03-06T06:45:01;6.80;99.90
3262;DHT22;1643;47.746;9.000;2024-03-06T06:47:27;6.80;99.90
3262;DHT22;1643;47.746;9.000;2024-03-06T06:49:53;6.80;99.90
3262;DHT22;1643;47.746;9.000;2024-03-06T06:52:19;6.70;99.90
3262;DHT22;1643;47.746;9.000;2024-03-06T06:54:45;6.80;99.90
3262;DHT22;1643;47.746;9.000;2024-03-06T06:57:10;6.70;99.90
3262;DHT22;1643;47.746;9.000;2024-03-06T06:59:36;6.70;99.90
3262;DHT22;1643;47.746;9.000;2024-03-06T07:02:03;6.70;99.90
3262;DHT22;1643;47.746;9.000;2024-03-06T07:04:28;6.80;99.90
3262;DHT22;1643;47.746;9.000;2024-03-06T07:06:54;6.80;99.90
3262;DHT22;1643;47.746;9.000;2024-03-06T07:09:20;6.70;99.90
3262;DHT22;1643;47.746;9.000;2024-03-06T07:11:46;6.70;99.90
3262;DHT22;1643;47.746;9.000;2024-03-06T07:14:14;6.70;99.90
3262;DHT22;1643;47.746;9.000;2024-03-06T07:16:44;6.70;99.90
3262;DHT22;1643;47.746;9.000;2024-03-06T07:19:10;6.70;99.90
3262;DHT22;1643;47.746;9.000;2024-03-06T07:21:35;6.70;99.90
3262;DHT22;1643;47.746;9.000;2024-03-06T07:24:01;6.60;99.90
3262;DHT22;1643;47.746;9.000;2024-03-06T07:26:27;6.70;99.90
3262;DHT22;1643;47.746;9.000;2024-03-06T07:28:55;6.60;99.90
3262;DHT22;1643;47.746;9.000;2024-03-06T07:31:21;6.70;99.90
3262;DHT22;1643;47.746;9.000;2024-03-06T07:33:47;6.70;99.90
3262;DHT22;1643;47.746;9.000;2024-03-06T07:36:12;6.60;99.90
3262;DHT22;1643;47.746;9.000;2024-03-06T07:38:38;6.60;99.90
3262;DHT22;1643;47.746;9.000;2024-03-06T07:41:04;6.60;99.90
3262;DHT22;1643;47.746;9.000;2024-03-06T07:43:30;6.60;99.90
3262;DHT22;1643;47.746;9.000;2024-03-06T07:45:55;6.70;99.90
3262;DHT22;1643;47.746;9.000;2024-03-06T07:48:21;6.70;99.90
3262;DHT22;1643;47.746;9.000;2024-03-06T07:50:47;6.70;99.90
3262;DHT22;1643;47.746;9.000;2024-03-06T07:53:12;6.70;99.90
3262;DHT22;1643;47.746;9.000;2024-03-06T07:55:38;6.70;99.90
3262;DHT22;1643;47.746;9.000;2024-03-06T07:58:04;6.80;99.90
3262;DHT22;1643;47.746;9.000;2024-03-06T08:00:30;6.80;99.90
3262;DHT22;1643;47.746;9.000;2024-03-06T08:02:57;6.70;99.90
3262;DHT22;1643;47.746;9.000;2024-03-06T08:05:22;6.70;99.90
3262;DHT22;1643;47.746;9.000;2024-03-06T08:07:48;6.70;99.90
3262;DHT22;1643;47.746;9.000;2024-03-06T08:10:14;6.70;99.90
3262;DHT22;1643;47.746;9.000;2024-03-06T08:12:43;6.80;99.90
3262;DHT22;1643;47.746;9.000;2024-03-06T08:15:13;6.70;99.90
3262;DHT22;1643;47.746;9.000;2024-03-06T08:17:41;6.70;99.90
3262;DHT22;1643;47.746;9.000;2024-03-06T08:20:08;6.80;99.90
3262;DHT22;1643;47.746;9.000;2024-03-06T08:22:36;6.70;99.90
3262;DHT22;1643;47.746;9.000;2024-03-06T08:25:09;6.70;99.90
3262;DHT22;1643;47.746;9.000;2024-03-06T08:27:36;6.60;99.90
3262;DHT22;1643;47.746;9.000;2024-03-06T08:30:03;6.60;99.90
3262;DHT22;1643;47.746;9.000;2024-03-06T08:32:31;6.70;99.90
3262;DHT22;1643;47.746;9.000;2024-03-06T08:34:58;6.70;99.90
3262;DHT22;1643;47.746;9.000;2024-03-06T08:37:24;6.60;99.90
3262;DHT22;1643;47.746;9.000;2024-03-06T08:39:50;6.60;99.90
3262;DHT22;1643;47.746;9.000;2024-03-06T08:42:15;6.70;99.90
3262;DHT22;1643;47.746;9.000;2024-03-06T08:44:44;6.80;99.90
3262;DHT22;1643;47.746;9.000;2024-03-06T08:47:11;6.90;99.90
3262;DHT22;1643;47.746;9.000;2024-03-06T08:49:37;6.80;99.90
3262;DHT22;1643;47.746;9.000;2024-03-06T08:52:02;6.90;99.90
3262;DHT22;1643;47.746;9.000;2024-03-06T08:54:28;6.80;99.90
3262;DHT22;1643;47.746;9.000;2024-03-06T08:56:56;6.80;99.90
3262;DHT22;1643;47.746;9.000;2024-03-06T08:59:24;6.80;99.90
3262;DHT22;1643;47.746;9.000;2024-03-06T09:01:51;6.90;99.90
3262;DHT22;1643;47.746;9.000;2024-03-06T09:04:17;6.90;99.90
3262;DHT22;1643;47.746;9.000;2024-03-06T09:06:43;6.90;99.90
3262;DHT22;1643;47.746;9.000;2024-03-06T09:09:09;7.00;99.90
3262;DHT22;1643;47.746;9.000;2024-03-06T09:11:35;7.00;99.90
3262;DHT22;1643;47.746;9.000;2024-03-06T09:14:00;6.90;99.90
3262;DHT22;1643;47.746;9.000;2024-03-06T09:16:26;7.00;99.90
3262;DHT22;1643;47.746;9.000;2024-03-06T09:18:53;7.00;99.90
3262;DHT22;1643;47.746;9.000;2024-03-06T09:21:18;7.00;99.90
3262;DHT22;1643;47.746;9.000;2024-03-06T09:23:45;7.10;99.90
3262;DHT22;1643;47.746;9.000;2024-03-06T09:26:11;7.10;99.90
3262;DHT22;1643;47.746;9.000;2024-03-06T09:28:36;7.10;99.90
3262;DHT22;1643;47.746;9.000;2024-03-06T09:31:03;7.20;99.90
3262;DHT22;1643;47.746;9.000;2024-03-06T09:33:30;7.20;99.90
3262;DHT22;1643;47.746;9.000;2024-03-06T09:35:55;7.10;99.90
3262;DHT22;1643;47.746;9.000;2024-03-06T09:38:22;7.20;99.90
3262;DHT22;1643;47.746;9.000;2024-03-06T09:40:48;7.20;99.90
3262;DHT22;1643;47.746;9.000;2024-03-06T09:43:14;7.20;99.90
3262;DHT22;1643;47.746;9.000;2024-03-06T09:45:40;7.20;99.90
3262;DHT22;1643;47.746;9.000;2024-03-06T09:48:06;7.20;99.90
3262;DHT22;1643;47.746;9.000;2024-03-06T09:50:35;7.20;99.90
3262;DHT22;1643;47.746;9.000;2024-03-06T09:53:04;7.20;99.90
3262;DHT22;1643;47.746;9.000;2024-03-06T09:55:33;7.20;99.90
3262;DHT22;1643;47.746;9.000;2024-03-06T09:57:59;7.30;99.90
3262;DHT22;1643;47.746;9.000;2024-03-06T10:00:28;7.30;99.90
3262;DHT22;1643;47.746;9.000;2024-03-06T10:02:58;7.20;99.90
3262;DHT22;1643;47.746;9.000;2024-03-06T10:05:27;7.10;99.90
3262;DHT22;1643;47.746;9.000;2024-03-06T10:07:53;7.10;99.90
3262;DHT22;1643;47.746;9.000;2024-03-06T10:10:20;7.30;99.90
3262;DHT22;1643;47.746;9.000;2024-03-06T10:12:48;7.20;99.90
3262;DHT22;1643;47.746;9.000;2024-03-06T10:15:15;7.20;99.90
3262;DHT22;1643;47.746;9.000;2024-03-06T10:17:40;7.30;99.90
3262;DHT22;1643;47.746;9.000;2024-03-06T10:20:20;7.30;99.90
3262;DHT22;1643;47.746;9.000;2024-03-06T10:22:50;7.20;99.90
3262;DHT22;1643;47.746;9.000;2024-03-06T10:25:20;7.10;99.90
3262;DHT22;1643;47.746;9.000;2024-03-06T10:30:28;7.20;99.90
3262;DHT22;1643;47.746;9.000;2024-03-06T10:32:53;7.20;99.90
3262;DHT22;1643;47.746;9.000;2024-03-06T10:35:20;7.30;99.90
3262;DHT22;1643;47.746;9.000;2024-03-06T10:37:50;7.20;99.90
3262;DHT22;1643;47.746;9.000;2024-03-06T10:40:17;7.20;99.90
3262;DHT22;1643;47.746;9.000;2024-03-06T10:42:43;7.30;99.90
3262;DHT22;1643;47.746;9.000;2024-03-06T10:45:13;7.40;99.90
3262;DHT22;1643;47.746;9.000;2024-03-06T10:47:40;7.50;99.90
3262;DHT22;1643;47.746;9.000;2024-03-06T10:50:06;7.40;99.90
3262;DHT22;1643;47.746;9.000;2024-03-06T10:52:36;7.60;99.90
3262;DHT22;1643;47.746;9.000;2024-03-06T10:55:04;7.50;99.90
3262;DHT22;1643;47.746;9.000;2024-03-06T10:57:30;7.40;99.90
3262;DHT22;1643;47.746;9.000;2024-03-06T10:59:56;7.30;99.90
3262;DHT22;1643;47.746;9.000;2024-03-06T11:02:27;7.30;99.90
3262;DHT22;1643;47.746;9.000;2024-03-06T11:04:53;7.30;99.90
3262;DHT22;1643;47.746;9.000;2024-03-06T11:07:19;7.30;99.90
3262;DHT22;1643;47.746;9.000;2024-03-06T11:09:45;7.30;99.90
3262;DHT22;1643;47.746;9.000;2024-03-06T11:12:35;7.30;99.90
3262;DHT22;1643;47.746;9.000;2024-03-06T11:15:15;7.40;99.90
3262;DHT22;1643;47.746;9.000;2024-03-06T11:17:42;7.30;99.90
3262;DHT22;1643;47.746;9.000;2024-03-06T11:20:13;7.30;99.90
3262;DHT22;1643;47.746;9.000;2024-03-06T11:28:28;7.40;99.90
3262;DHT22;1643;47.746;9.000;2024-03-06T11:30:58;7.30;99.90
3262;DHT22;1643;47.746;9.000;2024-03-06T11:33:47;7.30;99.90
3262;DHT22;1643;47.746;9.000;2024-03-06T11:39:05;7.40;99.90
3262;DHT22;1643;47.746;9.000;2024-03-06T11:44:14;7.40;99.90
3262;DHT22;1643;47.746;9.000;2024-03-06T11:46:56;7.40;99.90
3262;DHT22;1643;47.746;9.000;2024-03-06T11:49:23;7.40;99.90
3262;DHT22;1643;47.746;9.000;2024-03-06T11:51:58;7.40;99.90
3262;DHT22;1643;47.746;9.000;2024-03-06T11:54:24;7.40;99.90
3262;DHT22;1643;47.746;9.000;2024-03-06T11:56:59;7.40;99.90
3262;DHT22;1643;47.746;9.000;2024-03-06T11:59:26;7.50;99.90
3262;DHT22;1643;47.746;9.000;2024-03-06T12:01:53;7.50;99.90
3262;DHT22;1643;47.746;9.000;2024-03-06T12:04:20;7.50;99.90
3262;DHT22;1643;47.746;9.000;2024-03-06T12:06:46;7.60;99.90
3262;DHT22;1643;47.746;9.000;2024-03-06T12:09:12;7.70;99.90
3262;DHT22;1643;47.746;9.000;2024-03-06T12:11:38;7.60;99.90
3262;DHT22;1643;47.746;9.000;2024-03-06T12:14:04;7.60;99.90
3262;DHT22;1643;47.746;9.000;2024-03-06T12:16:30;7.60;99.90
3262;DHT22;1643;47.746;9.000;2024-03-06T12:18:57;7.50;99.90
3262;DHT22;1643;47.746;9.000;2024-03-06T12:21:32;7.50;99.90
3262;DHT22;1643;47.746;9.000;2024-03-06T12:24:08;7.60;99.90
3262;DHT22;1643;47.746;9.000;2024-03-06T12:26:35;7.50;99.90
3262;DHT22;1643;47.746;9.000;2024-03-06T12:29:09;7.50;99.90
3262;DHT22;1643;47.746;9.000;2024-03-06T12:31:38;7.50;99.90
3262;DHT22;1643;47.746;9.000;2024-03-06T12:34:07;7.50;99.90
3262;DHT22;1643;47.746;9.000;2024-03-06T12:36:33;7.70;99.90
3262;DHT22;1643;47.746;9.000;2024-03-06T12:39:01;7.50;99.90
3262;DHT22;1643;47.746;9.000;2024-03-06T12:41:27;7.40;99.90
3262;DHT22;1643;47.746;9.000;2024-03-06T12:43:53;7.40;99.90
3262;DHT22;1643;47.746;9.000;2024-03-06T12:46:20;7.50;99.90
3262;DHT22;1643;47.746;9.000;2024-03-06T12:48:45;7.50;99.90
3262;DHT22;1643;47.746;9.000;2024-03-06T12:51:12;7.40;99.90
3262;DHT22;1643;47.746;9.000;2024-03-06T12:53:37;7.50;99.90
3262;DHT22;1643;47.746;9.000;2024-03-06T12:56:03;7.50;99.90
3262;DHT22;1643;47.746;9.000;2024-03-06T12:58:29;7.50;99.90
3262;DHT22;1643;47.746;9.000;2024-03-06T13:01:00;7.50;99.90
3262;DHT22;1643;47.746;9.000;2024-03-06T13:03:27;7.50;99.90
3262;DHT22;1643;47.746;9.000;2024-03-06T13:05:53;7.50;99.90
3262;DHT22;1643;47.746;9.000;2024-03-06T13:08:18;7.50;99.90
3262;DHT22;1643;47.746;9.000;2024-03-06T13:10:44;7.60;99.90
3262;DHT22;1643;47.746;9.000;2024-03-06T13:13:10;7.70;99.90
3262;DHT22;1643;47.746;9.000;2024-03-06T13:15:36;7.70;99.90
3262;DHT22;1643;47.746;9.000;2024-03-06T13:18:05;7.70;99.90
3262;DHT22;1643;47.746;9.000;2024-03-06T13:20:31;7.70;99.90
3262;DHT22;1643;47.746;9.000;2024-03-06T13:22:57;7.60;99.90
3262;DHT22;1643;47.746;9.000;2024-03-06T13:25:23;7.60;99.90
3262;DHT22;1643;47.746;9.000;2024-03-06T13:27:49;7.60;99.90
3262;DHT22;1643;47.746;9.000;2024-03-06T13:30:16;7.60;99.90
3262;DHT22;1643;47.746;9.000;2024-03-06T13:32:42;7.50;99.90
3262;DHT22;1643;47.746;9.000;2024-03-06T13:35:13;7.50;99.90
3262;DHT22;1643;47.746;9.000;2024-03-06T13:37:42;7.40;99.90
3262;DHT22;1643;47.746;9.000;2024-03-06T13:40:09;7.40;99.90
3262;DHT22;1643;47.746;9.000;2024-03-06T13:42:36;7.40;99.90
3262;DHT22;1643;47.746;9.000;2024-03-06T13:45:06;7.40;99.90
3262;DHT22;1643;47.746;9.000;2024-03-06T13:47:39;7.40;99.90
3262;DHT22;1643;47.746;9.000;2024-03-06T13:50:10;7.40;99.90
3262;DHT22;1643;47.746;9.000;2024-03-06T13:52:36;7.40;99.90
3262;DHT22;1643;47.746;9.000;2024-03-06T13:55:02;7.50;99.90
3262;DHT22;1643;47.746;9.000;2024-03-06T13:57:32;7.40;99.90
3262;DHT22;1643;47.746;9.000;2024-03-06T14:00:07;7.40;99.90
3262;DHT22;1643;47.746;9.000;2024-03-06T14:02:43;7.30;99.90
3262;DHT22;1643;47.746;9.000;2024-03-06T14:05:11;7.30;99.90
3262;DHT22;1643;47.746;9.000;2024-03-06T14:07:38;7.30;99.90
3262;DHT22;1643;47.746;9.000;2024-03-06T14:10:05;7.20;99.90
3262;DHT22;1643;47.746;9.000;2024-03-06T14:12:31;7.20;99.90
3262;DHT22;1643;47.746;9.000;2024-03-06T14:14:56;7.20;99.90
3262;DHT22;1643;47.746;9.000;2024-03-06T14:17:22;7.20;99.90
3262;DHT22;1643;47.746;9.000;2024-03-06T14:19:48;7.20;99.90
3262;DHT22;1643;47.746;9.000;2024-03-06T14:22:13;7.20;99.90
3262;DHT22;1643;47.746;9.000;2024-03-06T14:24:39;7.20;99.90
3262;DHT22;1643;47.746;9.000;2024-03-06T14:27:05;7.20;99.90
3262;DHT22;1643;47.746;9.000;2024-03-06T14:29:31;7.30;99.90
3262;DHT22;1643;47.746;9.000;2024-03-06T14:31:57;7.20;99.90
3262;DHT22;1643;47.746;9.000;2024-03-06T14:34:22;7.10;99.90
3262;DHT22;1643;47.746;9.000;2024-03-06T14:36:51;7.10;99.90
3262;DHT22;1643;47.746;9.000;2024-03-06T14:39:20;7.10;99.90
3262;DHT22;1643;47.746;9.000;2024-03-06T14:41:51;7.10;99.90
3262;DHT22;1643;47.746;9.000;2024-03-06T14:44:17;7.10;99.90
3262;DHT22;1643;47.746;9.000;2024-03-06T14:46:42;7.20;99.90
3262;DHT22;1643;47.746;9.000;2024-03-06T14:49:09;7.20;99.90
3262;DHT22;1643;47.746;9.000;2024-03-06T14:51:35;7.20;99.90
3262;DHT22;1643;47.746;9.000;2024-03-06T14:54:01;7.30;99.90
3262;DHT22;1643;47.746;9.000;2024-03-06T14:56:27;7.20;99.90
3262;DHT22;1643;47.746;9.000;2024-03-06T14:58:52;7.30;99.90
3262;DHT22;1643;47.746;9.000;2024-03-06T15:01:18;7.20;99.90
3262;DHT22;1643;47.746;9.000;2024-03-06T15:03:44;7.10;99.90
3262;DHT22;1643;47.746;9.000;2024-03-06T15:06:13;7.00;99.90
3262;DHT22;1643;47.746;9.000;2024-03-06T15:08:39;7.10;99.90
3262;DHT22;1643;47.746;9.000;2024-03-06T15:11:06;7.20;99.90
3262;DHT22;1643;47.746;9.000;2024-03-06T15:13:32;7.20;99.90
3262;DHT22;1643;47.746;9.000;2024-03-06T15:15:57;7.20;99.90
3262;DHT22;1643;47.746;9.000;2024-03-06T15:18:23;7.00;99.90
3262;DHT22;1643;47.746;9.000;2024-03-06T15:20:50;7.00;99.90
3262;DHT22;1643;47.746;9.000;2024-03-06T15:23:15;7.00;99.90
3262;DHT22;1643;47.746;9.000;2024-03-06T15:25:41;7.00;99.90
3262;DHT22;1643;47.746;9.000;2024-03-06T15:28:10;6.90;99.90
3262;DHT22;1643;47.746;9.000;2024-03-06T15:30:35;6.90;99.90
3262;DHT22;1643;47.746;9.000;2024-03-06T15:33:03;6.80;99.90
3262;DHT22;1643;47.746;9.000;2024-03-06T15:35:29;6.80;99.90
3262;DHT22;1643;47.746;9.000;2024-03-06T15:37:55;6.90;99.90
3262;DHT22;1643;47.746;9.000;2024-03-06T15:40:21;6.80;99.90
3262;DHT22;1643;47.746;9.000;2024-03-06T15:42:47;6.80;99.90
3262;DHT22;1643;47.746;9.000;2024-03-06T15:45:13;6.80;99.90
3262;DHT22;1643;47.746;9.000;2024-03-06T15:47:41;6.80;99.90
3262;DHT22;1643;47.746;9.000;2024-03-06T15:50:12;6.70;99.90
3262;DHT22;1643;47.746;9.000;2024-03-06T15:52:38;6.80;99.90
3262;DHT22;1643;47.746;9.000;2024-03-06T15:55:07;6.70;99.90
3262;DHT22;1643;47.746;9.000;2024-03-06T15:57:35;6.70;99.90
3262;DHT22;1643;47.746;9.000;2024-03-06T16:00:02;6.70;99.90
3262;DHT22;1643;47.746;9.000;2024-03-06T16:02:28;6.80;99.90
3262;DHT22;1643;47.746;9.000;2024-03-06T16:04:53;6.70;99.90
3262;DHT22;1643;47.746;9.000;2024-03-06T16:07:19;6.80;99.90
3262;DHT22;1643;47.746;9.000;2024-03-06T16:09:45;6.80;99.90
3262;DHT22;1643;47.746;9.000;2024-03-06T16:12:10;6.70;99.90
3262;DHT22;1643;47.746;9.000;2024-03-06T16:14:36;6.70;99.90
3262;DHT22;1643;47.746;9.000;2024-03-06T16:17:02;6.70;99.90
3262;DHT22;1643;47.746;9.000;2024-03-06T16:19:34;6.70;99.90
3262;DHT22;1643;47.746;9.000;2024-03-06T16:22:03;6.70;99.90
3262;DHT22;1643;47.746;9.000;2024-03-06T16:24:29;6.70;99.90
3262;DHT22;1643;47.746;9.000;2024-03-06T16:26:55;6.80;99.90
3262;DHT22;1643;47.746;9.000;2024-03-06T16:29:21;6.70;99.90
3262;DHT22;1643;47.746;9.000;2024-03-06T16:31:47;6.70;99.90
3262;DHT22;1643;47.746;9.000;2024-03-06T16:34:15;6.70;99.90
3262;DHT22;1643;47.746;9.000;2024-03-06T16:36:42;6.70;99.90
3262;DHT22;1643;47.746;9.000;2024-03-06T16:39:07;6.70;99.90
3262;DHT22;1643;47.746;9.000;2024-03-06T16:41:33;6.60;99.90
3262;DHT22;1643;47.746;9.000;2024-03-06T16:44:01;6.60;99.90
3262;DHT22;1643;47.746;9.000;2024-03-06T16:46:26;6.60;99.90
3262;DHT22;1643;47.746;9.000;2024-03-06T16:48:55;6.60;99.90
3262;DHT22;1643;47.746;9.000;2024-03-06T16:51:20;6.70;99.90